Lynge, Denmark
Current Conditions -  °F | °C
As of 7:20 PM on Sunday 21 Dec 2014 (Local Time) from EKRK Reporting Station
Rain Showers Rain Showers  
Wind Chill: 35°   Ceiling: 1600
Heat Index: 43°   Visibility: 6mi
Dew Point: 43°   Wind: 16mph
Humidity: 100%   Direction: 250°WSW
Pressure: 29.77"   Gusts: NA
Location:  55.84°N, 12.28°E
Report Text: EKRK 211820Z AUTO 25014KT 9999NDV -SHRA FEW009/// SCT013///BKN016/// OVC027/// 06/06 Q1008
Loading
Personal Weather Stations






























Interactive Weather Map New forecast layout! Learn more

10-Day Weather Forecast

Advertisements
Track Severe Weather on mobile